Pago Pago International (NSTU)

Aerodrome — Elev 32
American Samoa
S014.19.51.600 W170.42.37.800
Loading chart...

Current Weather

NSTU 270550Z 14009KT 10SM SCT017TCU BKN038 BKN100 27/27 A2990 RMK TCU ALQDS SLP125 60004 8/470 T02730272 10298 20270 53007

Published 41 minutes ago

Airport Activity

Loading chart...
Loading chart...

Positions

CallsignRadio Name / Freq / Voice Room / TypeFrequencyVoice RoomType
NZZO_FSS Auckland Radio
128.900
nzzo_fss
128.900nzzo_fss
NSFA_CTR Faleolo Control
123.800
nsfa_ctr
123.800nsfa_ctr
NSFA_APP Faleolo Approach
126.900
nsfa_app
126.900nsfa_app
NSTU_TWR Pago Pago Tower
118.600
nstu_twr
118.600nstu_twr
UNICOM NZZO UNICOM
122.800
unicom_nzzo
122.800unicom_nzzo